sensor_id;sensor_type;location;lat;lon;timestamp;pressure;altitude;pressure_sealevel;temperature;humidity
66664;BME280;59683;51.428;-1.994;2022-12-18T04:09:43;101012.50;;;0.57;100.00
66664;BME280;59683;51.428;-1.994;2022-12-18T04:12:14;101019.56;;;0.53;100.00
66664;BME280;59683;51.428;-1.994;2022-12-18T04:14:43;101015.56;;;0.69;100.00
66664;BME280;59683;51.428;-1.994;2022-12-18T04:17:11;100996.81;;;0.58;100.00
66664;BME280;59683;51.428;-1.994;2022-12-18T04:19:39;101008.75;;;0.65;100.00
66664;BME280;59683;51.428;-1.994;2022-12-18T04:22:08;100986.22;;;0.64;100.00
66664;BME280;59683;51.428;-1.994;2022-12-18T04:24:38;100973.38;;;0.58;100.00
66664;BME280;59683;51.428;-1.994;2022-12-18T04:29:47;100971.09;;;0.74;100.00
66664;BME280;59683;51.428;-1.994;2022-12-18T04:32:16;100959.28;;;0.64;100.00
66664;BME280;59683;51.428;-1.994;2022-12-18T04:34:42;100949.75;;;0.63;100.00
66664;BME280;59683;51.428;-1.994;2022-12-18T04:37:09;100948.72;;;0.68;100.00
66664;BME280;59683;51.428;-1.994;2022-12-18T04:39:39;100930.16;;;0.78;100.00
66664;BME280;59683;51.428;-1.994;2022-12-18T04:42:17;100917.13;;;0.78;100.00
66664;BME280;59683;51.428;-1.994;2022-12-18T04:44:43;100917.13;;;0.78;100.00
66664;BME280;59683;51.428;-1.994;2022-12-18T04:47:11;100930.63;;;0.90;100.00
66664;BME280;59683;51.428;-1.994;2022-12-18T04:49:37;100919.47;;;0.85;100.00
66664;BME280;59683;51.428;-1.994;2022-12-18T04:52:07;100926.34;;;0.88;100.00
66664;BME280;59683;51.428;-1.994;2022-12-18T04:54:34;100934.84;;;0.93;100.00
66664;BME280;59683;51.428;-1.994;2022-12-18T04:57:00;100918.53;;;0.88;100.00
66664;BME280;59683;51.428;-1.994;2022-12-18T04:59:28;100907.47;;;0.81;100.00
66664;BME280;59683;51.428;-1.994;2022-12-18T05:01:55;100917.63;;;0.89;100.00
66664;BME280;59683;51.428;-1.994;2022-12-18T05:04:22;100899.97;;;0.72;100.00
66664;BME280;59683;51.428;-1.994;2022-12-18T05:06:53;100894.75;;;0.72;100.00
66664;BME280;59683;51.428;-1.994;2022-12-18T05:09:31;100895.66;;;0.71;100.00
66664;BME280;59683;51.428;-1.994;2022-12-18T05:11:57;100885.19;;;0.72;100.00
66664;BME280;59683;51.428;-1.994;2022-12-18T05:14:22;100891.16;;;0.76;100.00
66664;BME280;59683;51.428;-1.994;2022-12-18T05:17:07;100905.81;;;0.79;100.00
66664;BME280;59683;51.428;-1.994;2022-12-18T05:19:34;100902.31;;;0.80;100.00
66664;BME280;59683;51.428;-1.994;2022-12-18T05:22:01;100876.66;;;0.67;100.00
66664;BME280;59683;51.428;-1.994;2022-12-18T05:24:30;100870.78;;;0.62;100.00
66664;BME280;59683;51.428;-1.994;2022-12-18T05:26:56;100880.09;;;0.69;100.00
66664;BME280;59683;51.428;-1.994;2022-12-18T05:29:24;100861.03;;;0.67;100.00
66664;BME280;59683;51.428;-1.994;2022-12-18T05:31:52;100853.44;;;0.61;100.00
66664;BME280;59683;51.428;-1.994;2022-12-18T05:34:18;100865.50;;;0.64;100.00
66664;BME280;59683;51.428;-1.994;2022-12-18T05:36:49;100857.66;;;0.65;100.00
66664;BME280;59683;51.428;-1.994;2022-12-18T05:39:19;100844.66;;;0.64;100.00
66664;BME280;59683;51.428;-1.994;2022-12-18T05:47:01;100829.78;;;0.67;100.00
66664;BME280;59683;51.428;-1.994;2022-12-18T05:54:49;100797.72;;;0.65;100.00
66664;BME280;59683;51.428;-1.994;2022-12-18T05:57:17;100790.56;;;0.72;100.00
66664;BME280;59683;51.428;-1.994;2022-12-18T05:59:48;100786.13;;;0.74;100.00
66664;BME280;59683;51.428;-1.994;2022-12-18T06:02:17;100791.06;;;0.82;100.00
